sensor_id;sensor_type;location;lat;lon;timestamp;P1;durP1;ratioP1;P2;durP2;ratioP2
6663;SDS011;58749;48.022;10.922;2022-10-31T00:01:36;16.95;;;3.88;;
6663;SDS011;58749;48.022;10.922;2022-10-31T00:04:05;18.25;;;4.80;;
6663;SDS011;58749;48.022;10.922;2022-10-31T00:06:34;14.00;;;4.60;;
6663;SDS011;58749;48.022;10.922;2022-10-31T00:09:03;13.88;;;4.28;;
6663;SDS011;58749;48.022;10.922;2022-10-31T00:11:32;18.55;;;4.88;;
6663;SDS011;58749;48.022;10.922;2022-10-31T00:14:00;11.90;;;4.75;;
6663;SDS011;58749;48.022;10.922;2022-10-31T00:16:29;14.52;;;5.18;;
6663;SDS011;58749;48.022;10.922;2022-10-31T00:18:58;18.70;;;4.50;;
6663;SDS011;58749;48.022;10.922;2022-10-31T00:21:27;13.55;;;4.00;;
6663;SDS011;58749;48.022;10.922;2022-10-31T00:23:57;11.27;;;4.18;;
6663;SDS011;58749;48.022;10.922;2022-10-31T00:26:27;10.32;;;4.13;;
6663;SDS011;58749;48.022;10.922;2022-10-31T00:28:56;14.23;;;4.35;;
6663;SDS011;58749;48.022;10.922;2022-10-31T00:31:24;13.80;;;4.18;;
6663;SDS011;58749;48.022;10.922;2022-10-31T00:33:52;14.55;;;3.90;;
6663;SDS011;58749;48.022;10.922;2022-10-31T00:36:20;11.57;;;4.20;;
6663;SDS011;58749;48.022;10.922;2022-10-31T00:38:48;12.63;;;4.32;;
6663;SDS011;58749;48.022;10.922;2022-10-31T00:41:17;16.10;;;4.68;;
6663;SDS011;58749;48.022;10.922;2022-10-31T00:43:46;11.32;;;4.13;;
6663;SDS011;58749;48.022;10.922;2022-10-31T00:46:14;15.45;;;4.13;;
6663;SDS011;58749;48.022;10.922;2022-10-31T00:48:42;12.68;;;3.70;;
6663;SDS011;58749;48.022;10.922;2022-10-31T00:51:11;12.45;;;3.70;;
6663;SDS011;58749;48.022;10.922;2022-10-31T00:53:39;16.60;;;4.35;;
6663;SDS011;58749;48.022;10.922;2022-10-31T00:56:07;11.52;;;4.43;;
6663;SDS011;58749;48.022;10.922;2022-10-31T00:58:35;13.65;;;4.10;;
6663;SDS011;58749;48.022;10.922;2022-10-31T01:01:05;13.30;;;4.28;;
6663;SDS011;58749;48.022;10.922;2022-10-31T01:03:33;8.88;;;4.10;;
6663;SDS011;58749;48.022;10.922;2022-10-31T01:06:02;11.93;;;4.30;;
6663;SDS011;58749;48.022;10.922;2022-10-31T01:08:32;9.68;;;3.42;;
6663;SDS011;58749;48.022;10.922;2022-10-31T01:11:02;8.52;;;4.05;;
6663;SDS011;58749;48.022;10.922;2022-10-31T01:13:34;15.57;;;4.38;;
6663;SDS011;58749;48.022;10.922;2022-10-31T01:16:05;11.30;;;3.50;;
6663;SDS011;58749;48.022;10.922;2022-10-31T01:18:35;12.70;;;4.00;;
6663;SDS011;58749;48.022;10.922;2022-10-31T01:21:04;7.93;;;3.63;;
6663;SDS011;58749;48.022;10.922;2022-10-31T01:23:33;12.57;;;4.28;;
6663;SDS011;58749;48.022;10.922;2022-10-31T01:26:03;15.30;;;3.47;;
6663;SDS011;58749;48.022;10.922;2022-10-31T01:28:34;14.00;;;4.38;;
6663;SDS011;58749;48.022;10.922;2022-10-31T01:31:04;9.77;;;3.50;;
6663;SDS011;58749;48.022;10.922;2022-10-31T01:33:34;12.60;;;4.40;;
6663;SDS011;58749;48.022;10.922;2022-10-31T01:36:10;10.65;;;3.70;;
6663;SDS011;58749;48.022;10.922;2022-10-31T01:38:43;12.07;;;4.22;;
6663;SDS011;58749;48.022;10.922;2022-10-31T01:41:12;9.80;;;3.83;;
6663;SDS011;58749;48.022;10.922;2022-10-31T01:43:43;14.68;;;4.00;;
6663;SDS011;58749;48.022;10.922;2022-10-31T01:46:19;10.35;;;3.65;;
6663;SDS011;58749;48.022;10.922;2022-10-31T01:48:50;11.65;;;4.13;;
6663;SDS011;58749;48.022;10.922;2022-10-31T01:51:19;15.40;;;4.20;;
6663;SDS011;58749;48.022;10.922;2022-10-31T01:53:50;11.82;;;4.00;;
6663;SDS011;58749;48.022;10.922;2022-10-31T01:56:21;15.65;;;3.95;;
6663;SDS011;58749;48.022;10.922;2022-10-31T01:58:49;14.18;;;4.15;;
6663;SDS011;58749;48.022;10.922;2022-10-31T02:01:20;16.85;;;4.18;;
6663;SDS011;58749;48.022;10.922;2022-10-31T02:03:48;9.70;;;3.33;;
6663;SDS011;58749;48.022;10.922;2022-10-31T02:06:19;13.05;;;3.47;;
6663;SDS011;58749;48.022;10.922;2022-10-31T02:08:58;11.80;;;4.80;;
6663;SDS011;58749;48.022;10.922;2022-10-31T02:11:28;12.30;;;5.10;;
6663;SDS011;58749;48.022;10.922;2022-10-31T02:13:57;15.82;;;3.47;;
6663;SDS011;58749;48.022;10.922;2022-10-31T02:16:28;9.60;;;3.45;;
6663;SDS011;58749;48.022;10.922;2022-10-31T02:18:57;10.73;;;3.17;;
6663;SDS011;58749;48.022;10.922;2022-10-31T02:21:27;14.20;;;4.50;;
6663;SDS011;58749;48.022;10.922;2022-10-31T02:24:15;17.17;;;4.80;;
6663;SDS011;58749;48.022;10.922;2022-10-31T02:27:09;11.18;;;4.15;;
6663;SDS011;58749;48.022;10.922;2022-10-31T02:29:55;12.48;;;4.25;;
6663;SDS011;58749;48.022;10.922;2022-10-31T02:35:34;14.02;;;3.72;;
6663;SDS011;58749;48.022;10.922;2022-10-31T02:38:14;8.95;;;3.30;;
6663;SDS011;58749;48.022;10.922;2022-10-31T02:40:53;8.82;;;3.50;;
6663;SDS011;58749;48.022;10.922;2022-10-31T02:43:31;12.75;;;5.25;;
6663;SDS011;58749;48.022;10.922;2022-10-31T02:46:08;7.45;;;3.75;;
6663;SDS011;58749;48.022;10.922;2022-10-31T02:48:42;14.32;;;4.65;;
6663;SDS011;58749;48.022;10.922;2022-10-31T02:51:12;11.55;;;4.28;;
6663;SDS011;58749;48.022;10.922;2022-10-31T02:53:42;10.38;;;4.90;;
6663;SDS011;58749;48.022;10.922;2022-10-31T02:56:11;13.23;;;3.95;;
6663;SDS011;58749;48.022;10.922;2022-10-31T02:58:42;15.30;;;4.63;;
6663;SDS011;58749;48.022;10.922;2022-10-31T03:01:17;13.52;;;3.80;;
6663;SDS011;58749;48.022;10.922;2022-10-31T03:06:55;9.27;;;3.22;;
6663;SDS011;58749;48.022;10.922;2022-10-31T03:09:31;18.60;;;3.72;;
6663;SDS011;58749;48.022;10.922;2022-10-31T03:12:04;8.10;;;3.38;;
6663;SDS011;58749;48.022;10.922;2022-10-31T03:14:37;11.30;;;3.67;;
6663;SDS011;58749;48.022;10.922;2022-10-31T03:17:10;12.02;;;4.30;;
6663;SDS011;58749;48.022;10.922;2022-10-31T03:19:43;11.98;;;4.20;;
6663;SDS011;58749;48.022;10.922;2022-10-31T03:22:16;10.32;;;3.33;;
6663;SDS011;58749;48.022;10.922;2022-10-31T03:24:47;10.75;;;3.53;;
6663;SDS011;58749;48.022;10.922;2022-10-31T03:27:16;15.90;;;3.92;;
6663;SDS011;58749;48.022;10.922;2022-10-31T03:32:18;11.82;;;4.20;;
6663;SDS011;58749;48.022;10.922;2022-10-31T03:34:51;13.60;;;4.18;;
6663;SDS011;58749;48.022;10.922;2022-10-31T03:37:22;12.50;;;4.00;;
6663;SDS011;58749;48.022;10.922;2022-10-31T03:39:55;11.45;;;3.10;;
6663;SDS011;58749;48.022;10.922;2022-10-31T03:42:26;11.30;;;4.03;;
6663;SDS011;58749;48.022;10.922;2022-10-31T03:44:57;10.10;;;3.80;;
6663;SDS011;58749;48.022;10.922;2022-10-31T03:47:28;10.88;;;3.70;;
6663;SDS011;58749;48.022;10.922;2022-10-31T03:49:58;14.82;;;3.92;;
6663;SDS011;58749;48.022;10.922;2022-10-31T03:52:27;8.15;;;3.63;;
6663;SDS011;58749;48.022;10.922;2022-10-31T03:54:59;13.50;;;4.03;;
6663;SDS011;58749;48.022;10.922;2022-10-31T03:57:35;16.13;;;4.03;;
6663;SDS011;58749;48.022;10.922;2022-10-31T04:00:08;7.90;;;3.33;;
6663;SDS011;58749;48.022;10.922;2022-10-31T04:02:38;11.00;;;3.72;;
6663;SDS011;58749;48.022;10.922;2022-10-31T04:05:11;11.20;;;3.63;;
6663;SDS011;58749;48.022;10.922;2022-10-31T04:10:13;15.43;;;4.47;;
6663;SDS011;58749;48.022;10.922;2022-10-31T04:12:44;8.65;;;3.75;;
6663;SDS011;58749;48.022;10.922;2022-10-31T04:15:17;8.95;;;3.88;;
6663;SDS011;58749;48.022;10.922;2022-10-31T04:17:46;14.43;;;3.83;;
6663;SDS011;58749;48.022;10.922;2022-10-31T04:20:28;7.20;;;2.95;;
6663;SDS011;58749;48.022;10.922;2022-10-31T04:22:57;13.63;;;3.85;;
6663;SDS011;58749;48.022;10.922;2022-10-31T04:25:26;14.02;;;3.30;;
6663;SDS011;58749;48.022;10.922;2022-10-31T04:27:54;12.43;;;3.38;;
6663;SDS011;58749;48.022;10.922;2022-10-31T04:30:23;10.38;;;3.97;;
6663;SDS011;58749;48.022;10.922;2022-10-31T04:32:51;12.07;;;3.47;;
6663;SDS011;58749;48.022;10.922;2022-10-31T04:35:20;9.20;;;3.67;;
6663;SDS011;58749;48.022;10.922;2022-10-31T04:37:48;10.30;;;3.60;;
6663;SDS011;58749;48.022;10.922;2022-10-31T04:40:16;14.00;;;4.30;;
6663;SDS011;58749;48.022;10.922;2022-10-31T04:42:44;15.27;;;4.18;;
6663;SDS011;58749;48.022;10.922;2022-10-31T04:45:12;9.68;;;3.72;;
6663;SDS011;58749;48.022;10.922;2022-10-31T04:47:46;9.45;;;3.42;;
6663;SDS011;58749;48.022;10.922;2022-10-31T04:50:14;11.63;;;3.67;;
6663;SDS011;58749;48.022;10.922;2022-10-31T04:52:44;13.48;;;4.03;;
6663;SDS011;58749;48.022;10.922;2022-10-31T04:55:13;13.07;;;3.65;;
6663;SDS011;58749;48.022;10.922;2022-10-31T04:57:42;10.60;;;3.55;;
6663;SDS011;58749;48.022;10.922;2022-10-31T05:00:11;10.88;;;2.80;;
6663;SDS011;58749;48.022;10.922;2022-10-31T05:02:44;11.32;;;3.35;;
6663;SDS011;58749;48.022;10.922;2022-10-31T05:05:12;6.13;;;2.92;;
6663;SDS011;58749;48.022;10.922;2022-10-31T05:07:41;13.43;;;3.67;;
6663;SDS011;58749;48.022;10.922;2022-10-31T05:10:12;10.63;;;3.15;;
6663;SDS011;58749;48.022;10.922;2022-10-31T05:12:45;13.80;;;3.33;;
6663;SDS011;58749;48.022;10.922;2022-10-31T05:17:42;11.82;;;3.55;;
6663;SDS011;58749;48.022;10.922;2022-10-31T05:20:11;9.60;;;3.00;;
6663;SDS011;58749;48.022;10.922;2022-10-31T05:22:41;9.55;;;3.00;;
6663;SDS011;58749;48.022;10.922;2022-10-31T05:25:12;12.60;;;3.60;;
6663;SDS011;58749;48.022;10.922;2022-10-31T05:27:40;11.02;;;2.80;;
6663;SDS011;58749;48.022;10.922;2022-10-31T05:30:10;6.90;;;3.35;;
6663;SDS011;58749;48.022;10.922;2022-10-31T05:32:40;11.60;;;3.60;;
6663;SDS011;58749;48.022;10.922;2022-10-31T05:35:10;10.15;;;4.22;;
6663;SDS011;58749;48.022;10.922;2022-10-31T05:37:40;8.57;;;3.28;;
6663;SDS011;58749;48.022;10.922;2022-10-31T05:40:09;13.77;;;3.53;;
6663;SDS011;58749;48.022;10.922;2022-10-31T05:42:40;19.90;;;3.63;;
6663;SDS011;58749;48.022;10.922;2022-10-31T05:45:09;21.50;;;3.42;;
6663;SDS011;58749;48.022;10.922;2022-10-31T05:47:39;12.13;;;3.92;;
6663;SDS011;58749;48.022;10.922;2022-10-31T05:50:07;12.13;;;2.90;;
6663;SDS011;58749;48.022;10.922;2022-10-31T05:52:36;16.50;;;4.38;;
6663;SDS011;58749;48.022;10.922;2022-10-31T05:55:04;10.98;;;3.25;;
6663;SDS011;58749;48.022;10.922;2022-10-31T05:57:34;13.32;;;3.45;;
6663;SDS011;58749;48.022;10.922;2022-10-31T06:00:03;9.73;;;2.95;;
6663;SDS011;58749;48.022;10.922;2022-10-31T06:02:34;16.08;;;3.65;;
6663;SDS011;58749;48.022;10.922;2022-10-31T06:05:03;5.05;;;2.90;;
6663;SDS011;58749;48.022;10.922;2022-10-31T06:07:32;9.60;;;3.72;;
6663;SDS011;58749;48.022;10.922;2022-10-31T06:10:02;4.38;;;2.92;;
6663;SDS011;58749;48.022;10.922;2022-10-31T06:12:32;13.95;;;3.38;;
6663;SDS011;58749;48.022;10.922;2022-10-31T06:15:04;10.73;;;3.65;;
6663;SDS011;58749;48.022;10.922;2022-10-31T06:17:33;7.88;;;3.22;;
6663;SDS011;58749;48.022;10.922;2022-10-31T06:20:02;10.90;;;3.67;;
6663;SDS011;58749;48.022;10.922;2022-10-31T06:22:31;10.23;;;3.20;;
6663;SDS011;58749;48.022;10.922;2022-10-31T06:25:00;8.23;;;3.47;;
6663;SDS011;58749;48.022;10.922;2022-10-31T06:27:28;9.20;;;3.40;;
6663;SDS011;58749;48.022;10.922;2022-10-31T06:29:57;9.40;;;3.30;;
6663;SDS011;58749;48.022;10.922;2022-10-31T06:32:25;10.52;;;3.90;;
6663;SDS011;58749;48.022;10.922;2022-10-31T06:34:53;9.13;;;3.58;;
6663;SDS011;58749;48.022;10.922;2022-10-31T06:37:21;17.42;;;3.50;;
6663;SDS011;58749;48.022;10.922;2022-10-31T06:39:50;16.90;;;3.47;;
6663;SDS011;58749;48.022;10.922;2022-10-31T06:42:18;7.95;;;2.85;;
6663;SDS011;58749;48.022;10.922;2022-10-31T06:44:46;12.50;;;4.18;;
6663;SDS011;58749;48.022;10.922;2022-10-31T06:47:16;13.43;;;3.88;;
6663;SDS011;58749;48.022;10.922;2022-10-31T06:49:44;8.05;;;3.10;;
6663;SDS011;58749;48.022;10.922;2022-10-31T06:52:12;14.75;;;3.70;;
6663;SDS011;58749;48.022;10.922;2022-10-31T06:54:40;10.68;;;2.90;;
6663;SDS011;58749;48.022;10.922;2022-10-31T06:57:08;7.95;;;3.58;;
6663;SDS011;58749;48.022;10.922;2022-10-31T06:59:36;7.38;;;3.22;;
6663;SDS011;58749;48.022;10.922;2022-10-31T07:02:04;9.00;;;4.18;;
6663;SDS011;58749;48.022;10.922;2022-10-31T07:04:34;9.65;;;3.38;;
6663;SDS011;58749;48.022;10.922;2022-10-31T07:07:02;10.15;;;4.00;;
6663;SDS011;58749;48.022;10.922;2022-10-31T07:09:30;16.98;;;5.40;;
6663;SDS011;58749;48.022;10.922;2022-10-31T07:11:58;6.95;;;3.20;;
6663;SDS011;58749;48.022;10.922;2022-10-31T07:14:26;12.65;;;3.25;;
6663;SDS011;58749;48.022;10.922;2022-10-31T07:16:54;12.77;;;3.42;;
6663;SDS011;58749;48.022;10.922;2022-10-31T07:19:22;7.00;;;3.15;;
6663;SDS011;58749;48.022;10.922;2022-10-31T07:21:52;12.30;;;3.35;;
6663;SDS011;58749;48.022;10.922;2022-10-31T07:24:26;13.82;;;3.75;;
6663;SDS011;58749;48.022;10.922;2022-10-31T07:26:54;12.40;;;3.92;;
6663;SDS011;58749;48.022;10.922;2022-10-31T07:29:22;8.38;;;3.53;;
6663;SDS011;58749;48.022;10.922;2022-10-31T07:31:50;9.90;;;3.67;;
6663;SDS011;58749;48.022;10.922;2022-10-31T07:34:18;8.10;;;3.30;;
6663;SDS011;58749;48.022;10.922;2022-10-31T07:36:46;9.10;;;3.47;;
6663;SDS011;58749;48.022;10.922;2022-10-31T07:39:16;13.43;;;3.58;;
6663;SDS011;58749;48.022;10.922;2022-10-31T07:41:44;10.90;;;3.60;;
6663;SDS011;58749;48.022;10.922;2022-10-31T07:44:12;9.77;;;3.45;;
6663;SDS011;58749;48.022;10.922;2022-10-31T07:46:40;15.35;;;4.30;;
6663;SDS011;58749;48.022;10.922;2022-10-31T07:49:08;7.68;;;3.30;;
6663;SDS011;58749;48.022;10.922;2022-10-31T07:51:36;11.88;;;3.17;;
6663;SDS011;58749;48.022;10.922;2022-10-31T07:54:10;12.32;;;3.17;;
6663;SDS011;58749;48.022;10.922;2022-10-31T07:56:40;11.85;;;3.33;;
6663;SDS011;58749;48.022;10.922;2022-10-31T07:59:08;17.92;;;4.22;;
6663;SDS011;58749;48.022;10.922;2022-10-31T08:01:36;8.32;;;3.42;;
6663;SDS011;58749;48.022;10.922;2022-10-31T08:04:04;10.23;;;3.08;;
6663;SDS011;58749;48.022;10.922;2022-10-31T08:06:32;13.25;;;3.17;;
6663;SDS011;58749;48.022;10.922;2022-10-31T08:09:00;9.93;;;2.20;;
6663;SDS011;58749;48.022;10.922;2022-10-31T08:11:28;6.97;;;2.00;;
6663;SDS011;58749;48.022;10.922;2022-10-31T08:13:58;8.70;;;2.42;;
6663;SDS011;58749;48.022;10.922;2022-10-31T08:16:26;6.97;;;2.08;;
6663;SDS011;58749;48.022;10.922;2022-10-31T08:18:54;8.15;;;2.47;;
6663;SDS011;58749;48.022;10.922;2022-10-31T08:21:22;10.75;;;2.45;;
6663;SDS011;58749;48.022;10.922;2022-10-31T08:23:56;8.68;;;2.45;;
6663;SDS011;58749;48.022;10.922;2022-10-31T08:26:24;9.02;;;2.47;;
6663;SDS011;58749;48.022;10.922;2022-10-31T08:28:52;9.65;;;1.88;;
6663;SDS011;58749;48.022;10.922;2022-10-31T08:31:22;11.18;;;2.72;;
6663;SDS011;58749;48.022;10.922;2022-10-31T08:33:59;7.90;;;2.05;;
6663;SDS011;58749;48.022;10.922;2022-10-31T08:36:27;7.63;;;2.60;;
6663;SDS011;58749;48.022;10.922;2022-10-31T08:38:55;6.75;;;2.55;;
6663;SDS011;58749;48.022;10.922;2022-10-31T08:41:27;7.10;;;2.85;;
6663;SDS011;58749;48.022;10.922;2022-10-31T08:43:55;18.20;;;3.83;;
6663;SDS011;58749;48.022;10.922;2022-10-31T08:46:24;9.88;;;2.85;;
6663;SDS011;58749;48.022;10.922;2022-10-31T08:48:53;13.43;;;3.47;;
6663;SDS011;58749;48.022;10.922;2022-10-31T08:51:21;9.38;;;3.70;;
6663;SDS011;58749;48.022;10.922;2022-10-31T08:53:49;16.23;;;3.63;;
6663;SDS011;58749;48.022;10.922;2022-10-31T08:56:17;9.98;;;3.47;;
6663;SDS011;58749;48.022;10.922;2022-10-31T08:58:45;16.17;;;3.95;;
6663;SDS011;58749;48.022;10.922;2022-10-31T09:01:13;12.30;;;2.80;;
6663;SDS011;58749;48.022;10.922;2022-10-31T09:03:42;9.45;;;3.72;;
6663;SDS011;58749;48.022;10.922;2022-10-31T09:06:10;9.98;;;3.70;;
6663;SDS011;58749;48.022;10.922;2022-10-31T09:08:39;13.02;;;3.58;;
6663;SDS011;58749;48.022;10.922;2022-10-31T09:11:07;18.13;;;4.82;;
6663;SDS011;58749;48.022;10.922;2022-10-31T09:13:35;10.15;;;3.90;;
6663;SDS011;58749;48.022;10.922;2022-10-31T09:16:06;9.68;;;3.58;;
6663;SDS011;58749;48.022;10.922;2022-10-31T09:18:35;10.00;;;2.80;;
6663;SDS011;58749;48.022;10.922;2022-10-31T09:21:04;12.23;;;3.00;;
6663;SDS011;58749;48.022;10.922;2022-10-31T09:23:32;11.38;;;2.70;;
6663;SDS011;58749;48.022;10.922;2022-10-31T09:26:00;12.23;;;3.22;;
6663;SDS011;58749;48.022;10.922;2022-10-31T09:28:29;8.70;;;2.95;;
6663;SDS011;58749;48.022;10.922;2022-10-31T09:30:58;12.95;;;2.85;;
6663;SDS011;58749;48.022;10.922;2022-10-31T09:33:26;10.85;;;2.70;;
6663;SDS011;58749;48.022;10.922;2022-10-31T09:35:54;8.15;;;2.85;;
6663;SDS011;58749;48.022;10.922;2022-10-31T09:38:24;9.63;;;2.83;;
6663;SDS011;58749;48.022;10.922;2022-10-31T09:40:52;16.13;;;3.42;;
6663;SDS011;58749;48.022;10.922;2022-10-31T09:43:29;6.53;;;2.65;;
6663;SDS011;58749;48.022;10.922;2022-10-31T09:46:04;9.90;;;2.50;;
6663;SDS011;58749;48.022;10.922;2022-10-31T09:48:49;10.20;;;2.95;;
6663;SDS011;58749;48.022;10.922;2022-10-31T09:51:31;12.73;;;3.05;;
6663;SDS011;58749;48.022;10.922;2022-10-31T09:54:04;12.60;;;2.72;;
6663;SDS011;58749;48.022;10.922;2022-10-31T09:56:37;11.60;;;2.75;;
6663;SDS011;58749;48.022;10.922;2022-10-31T09:59:10;7.90;;;2.90;;
6663;SDS011;58749;48.022;10.922;2022-10-31T10:01:46;11.02;;;2.38;;
6663;SDS011;58749;48.022;10.922;2022-10-31T10:04:29;5.03;;;2.17;;
6663;SDS011;58749;48.022;10.922;2022-10-31T10:07:02;12.35;;;2.53;;
6663;SDS011;58749;48.022;10.922;2022-10-31T10:09:37;9.63;;;2.63;;
6663;SDS011;58749;48.022;10.922;2022-10-31T10:12:08;9.48;;;3.15;;
6663;SDS011;58749;48.022;10.922;2022-10-31T10:17:51;8.73;;;2.90;;
6663;SDS011;58749;48.022;10.922;2022-10-31T10:20:29;7.57;;;3.45;;
6663;SDS011;58749;48.022;10.922;2022-10-31T10:23:13;10.98;;;2.72;;
6663;SDS011;58749;48.022;10.922;2022-10-31T10:25:53;10.57;;;2.65;;
6663;SDS011;58749;48.022;10.922;2022-10-31T10:28:36;12.48;;;2.72;;
6663;SDS011;58749;48.022;10.922;2022-10-31T10:31:08;9.25;;;3.08;;
6663;SDS011;58749;48.022;10.922;2022-10-31T10:33:42;10.88;;;2.45;;
6663;SDS011;58749;48.022;10.922;2022-10-31T10:36:30;10.70;;;3.22;;
6663;SDS011;58749;48.022;10.922;2022-10-31T10:39:04;12.07;;;2.95;;
6663;SDS011;58749;48.022;10.922;2022-10-31T10:41:41;9.15;;;2.40;;
6663;SDS011;58749;48.022;10.922;2022-10-31T10:44:12;8.32;;;2.45;;
6663;SDS011;58749;48.022;10.922;2022-10-31T10:46:42;9.90;;;3.40;;
6663;SDS011;58749;48.022;10.922;2022-10-31T10:49:31;11.70;;;3.25;;
6663;SDS011;58749;48.022;10.922;2022-10-31T10:52:06;8.95;;;2.90;;
6663;SDS011;58749;48.022;10.922;2022-10-31T10:55:03;12.98;;;2.63;;
6663;SDS011;58749;48.022;10.922;2022-10-31T10:57:46;17.90;;;4.55;;
6663;SDS011;58749;48.022;10.922;2022-10-31T11:00:23;10.55;;;2.92;;
6663;SDS011;58749;48.022;10.922;2022-10-31T11:02:53;10.40;;;3.13;;
6663;SDS011;58749;48.022;10.922;2022-10-31T11:05:23;15.18;;;3.47;;
6663;SDS011;58749;48.022;10.922;2022-10-31T11:07:55;12.15;;;3.53;;
6663;SDS011;58749;48.022;10.922;2022-10-31T11:10:23;14.00;;;3.90;;
6663;SDS011;58749;48.022;10.922;2022-10-31T11:13:01;12.70;;;3.50;;
6663;SDS011;58749;48.022;10.922;2022-10-31T11:15:51;10.40;;;3.50;;
6663;SDS011;58749;48.022;10.922;2022-10-31T11:18:24;10.60;;;3.25;;
6663;SDS011;58749;48.022;10.922;2022-10-31T11:20:54;10.52;;;4.00;;
6663;SDS011;58749;48.022;10.922;2022-10-31T11:23:24;10.85;;;4.45;;
6663;SDS011;58749;48.022;10.922;2022-10-31T11:25:55;15.80;;;4.18;;
6663;SDS011;58749;48.022;10.922;2022-10-31T11:28:26;9.45;;;3.28;;
6663;SDS011;58749;48.022;10.922;2022-10-31T11:30:57;15.00;;;3.90;;
6663;SDS011;58749;48.022;10.922;2022-10-31T11:33:29;8.27;;;3.17;;
6663;SDS011;58749;48.022;10.922;2022-10-31T11:36:00;9.95;;;3.75;;
6663;SDS011;58749;48.022;10.922;2022-10-31T11:38:33;12.82;;;3.85;;
6663;SDS011;58749;48.022;10.922;2022-10-31T11:41:07;9.27;;;4.00;;
6663;SDS011;58749;48.022;10.922;2022-10-31T11:43:45;12.93;;;3.88;;
6663;SDS011;58749;48.022;10.922;2022-10-31T11:46:18;13.45;;;3.95;;
6663;SDS011;58749;48.022;10.922;2022-10-31T11:48:49;13.10;;;3.53;;
6663;SDS011;58749;48.022;10.922;2022-10-31T11:51:22;11.30;;;4.05;;
6663;SDS011;58749;48.022;10.922;2022-10-31T11:53:52;10.70;;;3.70;;
6663;SDS011;58749;48.022;10.922;2022-10-31T11:56:36;13.18;;;4.05;;
6663;SDS011;58749;48.022;10.922;2022-10-31T11:59:21;14.10;;;3.65;;
6663;SDS011;58749;48.022;10.922;2022-10-31T12:01:52;7.53;;;3.40;;
6663;SDS011;58749;48.022;10.922;2022-10-31T12:04:28;8.63;;;3.60;;
6663;SDS011;58749;48.022;10.922;2022-10-31T12:07:02;13.63;;;3.67;;
6663;SDS011;58749;48.022;10.922;2022-10-31T12:09:32;7.40;;;3.22;;
6663;SDS011;58749;48.022;10.922;2022-10-31T12:12:15;7.68;;;2.80;;
6663;SDS011;58749;48.022;10.922;2022-10-31T12:15:11;9.45;;;3.00;;
6663;SDS011;58749;48.022;10.922;2022-10-31T12:17:57;11.98;;;3.10;;
6663;SDS011;58749;48.022;10.922;2022-10-31T12:20:40;11.50;;;3.05;;
6663;SDS011;58749;48.022;10.922;2022-10-31T12:23:16;7.20;;;2.55;;
6663;SDS011;58749;48.022;10.922;2022-10-31T12:28:46;11.43;;;3.63;;
6663;SDS011;58749;48.022;10.922;2022-10-31T12:31:40;10.85;;;3.08;;
6663;SDS011;58749;48.022;10.922;2022-10-31T12:34:24;10.98;;;3.58;;
6663;SDS011;58749;48.022;10.922;2022-10-31T12:37:05;9.02;;;3.10;;
6663;SDS011;58749;48.022;10.922;2022-10-31T12:39:43;20.30;;;4.13;;
6663;SDS011;58749;48.022;10.922;2022-10-31T12:42:20;14.05;;;4.60;;
6663;SDS011;58749;48.022;10.922;2022-10-31T12:45:01;9.18;;;3.83;;
6663;SDS011;58749;48.022;10.922;2022-10-31T12:47:50;8.63;;;3.65;;
6663;SDS011;58749;48.022;10.922;2022-10-31T12:50:40;8.38;;;2.85;;
6663;SDS011;58749;48.022;10.922;2022-10-31T12:53:24;8.85;;;2.63;;
6663;SDS011;58749;48.022;10.922;2022-10-31T12:56:04;12.55;;;3.65;;
6663;SDS011;58749;48.022;10.922;2022-10-31T12:58:45;9.65;;;2.72;;
6663;SDS011;58749;48.022;10.922;2022-10-31T13:01:18;12.77;;;2.85;;
6663;SDS011;58749;48.022;10.922;2022-10-31T13:03:57;12.73;;;3.22;;
6663;SDS011;58749;48.022;10.922;2022-10-31T13:06:30;9.60;;;2.60;;
6663;SDS011;58749;48.022;10.922;2022-10-31T13:09:10;7.00;;;2.92;;
6663;SDS011;58749;48.022;10.922;2022-10-31T13:11:43;13.35;;;2.92;;
6663;SDS011;58749;48.022;10.922;2022-10-31T13:16:49;6.65;;;2.30;;
6663;SDS011;58749;48.022;10.922;2022-10-31T13:19:20;7.93;;;2.50;;
6663;SDS011;58749;48.022;10.922;2022-10-31T13:21:55;6.75;;;2.78;;
6663;SDS011;58749;48.022;10.922;2022-10-31T13:24:33;13.88;;;3.85;;
6663;SDS011;58749;48.022;10.922;2022-10-31T13:27:09;10.30;;;2.80;;
6663;SDS011;58749;48.022;10.922;2022-10-31T13:29:42;13.43;;;3.42;;
6663;SDS011;58749;48.022;10.922;2022-10-31T13:32:25;7.45;;;2.47;;
6663;SDS011;58749;48.022;10.922;2022-10-31T13:34:57;10.98;;;3.60;;
6663;SDS011;58749;48.022;10.922;2022-10-31T13:37:29;9.25;;;2.75;;
6663;SDS011;58749;48.022;10.922;2022-10-31T13:40:05;9.65;;;2.53;;
6663;SDS011;58749;48.022;10.922;2022-10-31T13:42:45;7.47;;;2.78;;
6663;SDS011;58749;48.022;10.922;2022-10-31T13:45:20;16.85;;;3.20;;
6663;SDS011;58749;48.022;10.922;2022-10-31T13:47:57;8.63;;;3.42;;
6663;SDS011;58749;48.022;10.922;2022-10-31T13:50:29;8.38;;;3.25;;
6663;SDS011;58749;48.022;10.922;2022-10-31T13:53:18;8.20;;;2.95;;
6663;SDS011;58749;48.022;10.922;2022-10-31T13:55:48;11.27;;;3.60;;
6663;SDS011;58749;48.022;10.922;2022-10-31T13:58:28;10.75;;;3.15;;
6663;SDS011;58749;48.022;10.922;2022-10-31T14:00:59;11.35;;;3.15;;
6663;SDS011;58749;48.022;10.922;2022-10-31T14:03:40;9.38;;;3.08;;
6663;SDS011;58749;48.022;10.922;2022-10-31T14:06:38;13.43;;;3.17;;
6663;SDS011;58749;48.022;10.922;2022-10-31T14:09:17;9.77;;;2.80;;
6663;SDS011;58749;48.022;10.922;2022-10-31T14:11:49;11.40;;;3.33;;
6663;SDS011;58749;48.022;10.922;2022-10-31T14:14:18;7.63;;;2.50;;
6663;SDS011;58749;48.022;10.922;2022-10-31T14:16:52;12.73;;;2.70;;
6663;SDS011;58749;48.022;10.922;2022-10-31T14:19:22;9.18;;;3.55;;
6663;SDS011;58749;48.022;10.922;2022-10-31T14:21:53;15.73;;;5.05;;
6663;SDS011;58749;48.022;10.922;2022-10-31T14:24:32;20.08;;;6.60;;
6663;SDS011;58749;48.022;10.922;2022-10-31T14:27:02;16.13;;;6.65;;
6663;SDS011;58749;48.022;10.922;2022-10-31T14:29:33;14.70;;;6.87;;
6663;SDS011;58749;48.022;10.922;2022-10-31T14:32:04;11.60;;;5.80;;
6663;SDS011;58749;48.022;10.922;2022-10-31T14:34:39;13.98;;;6.60;;
6663;SDS011;58749;48.022;10.922;2022-10-31T14:37:16;18.33;;;7.28;;
6663;SDS011;58749;48.022;10.922;2022-10-31T14:40:21;16.67;;;8.27;;
6663;SDS011;58749;48.022;10.922;2022-10-31T14:45:49;21.17;;;8.55;;
6663;SDS011;58749;48.022;10.922;2022-10-31T14:48:46;14.77;;;7.10;;
6663;SDS011;58749;48.022;10.922;2022-10-31T14:51:34;20.83;;;8.45;;
6663;SDS011;58749;48.022;10.922;2022-10-31T14:54:12;19.48;;;9.05;;
6663;SDS011;58749;48.022;10.922;2022-10-31T14:56:47;19.67;;;9.20;;
6663;SDS011;58749;48.022;10.922;2022-10-31T14:59:20;23.55;;;9.35;;
6663;SDS011;58749;48.022;10.922;2022-10-31T15:01:54;18.23;;;8.52;;
6663;SDS011;58749;48.022;10.922;2022-10-31T15:04:27;17.55;;;8.30;;
6663;SDS011;58749;48.022;10.922;2022-10-31T15:06:58;18.38;;;8.45;;
6663;SDS011;58749;48.022;10.922;2022-10-31T15:09:32;17.23;;;7.72;;
6663;SDS011;58749;48.022;10.922;2022-10-31T15:12:16;15.93;;;8.30;;
6663;SDS011;58749;48.022;10.922;2022-10-31T15:14:50;20.52;;;8.65;;
6663;SDS011;58749;48.022;10.922;2022-10-31T15:17:19;19.40;;;7.80;;
6663;SDS011;58749;48.022;10.922;2022-10-31T15:19:48;14.40;;;7.50;;
6663;SDS011;58749;48.022;10.922;2022-10-31T15:22:16;15.23;;;7.85;;
6663;SDS011;58749;48.022;10.922;2022-10-31T15:24:48;18.50;;;8.43;;
6663;SDS011;58749;48.022;10.922;2022-10-31T15:27:22;19.60;;;8.32;;
6663;SDS011;58749;48.022;10.922;2022-10-31T15:29:51;10.18;;;6.85;;
6663;SDS011;58749;48.022;10.922;2022-10-31T15:32:21;20.80;;;7.93;;
6663;SDS011;58749;48.022;10.922;2022-10-31T15:34:51;15.60;;;7.72;;